createdAt,value
2018-12-16T00:00:33.351Z,49.43
2018-12-16T00:03:03.445Z,56.17
2018-12-16T00:05:33.111Z,53.67
2018-12-16T00:08:02.864Z,50.33
2018-12-16T00:10:32.514Z,49.67
2018-12-16T00:13:02.123Z,51.37
2018-12-16T00:15:31.729Z,56.20
2018-12-16T00:18:01.402Z,54.07
2018-12-16T00:20:31.070Z,51.57
2018-12-16T00:23:00.727Z,53.03
2018-12-16T00:25:30.698Z,55.43
2018-12-16T00:28:00.343Z,57.37
2018-12-16T00:30:30.560Z,58.47
2018-12-16T00:33:00.172Z,56.10
2018-12-16T00:35:30.465Z,55.00
2018-12-16T00:38:00.094Z,54.67
2018-12-16T00:40:30.519Z,57.80
2018-12-16T00:43:00.413Z,55.70
2018-12-16T00:45:30.733Z,54.27
2018-12-16T00:48:00.487Z,50.77
2018-12-16T00:50:30.854Z,52.23
2018-12-16T00:53:00.506Z,56.40
2018-12-16T00:55:30.526Z,51.77
2018-12-16T00:58:00.196Z,50.67
2018-12-16T01:00:30.347Z,50.83
2018-12-16T01:03:00.030Z,52.43
2018-12-16T01:05:30.247Z,58.70
2018-12-16T01:07:59.855Z,52.10
2018-12-16T01:10:31.032Z,50.27
2018-12-16T01:13:00.612Z,51.63
2018-12-16T01:15:30.673Z,50.40
2018-12-16T01:18:00.319Z,54.20
2018-12-16T01:20:30.598Z,50.90
2018-12-16T01:23:00.273Z,54.20
2018-12-16T01:25:30.204Z,56.73
2018-12-16T01:27:59.790Z,55.57
2018-12-16T01:30:29.754Z,56.47
2018-12-16T01:32:59.437Z,49.27
2018-12-16T01:35:29.274Z,57.23
2018-12-16T01:37:58.926Z,53.47
2018-12-16T01:40:28.547Z,56.30
2018-12-16T01:42:58.221Z,58.70
2018-12-16T01:45:27.914Z,53.23
2018-12-16T01:47:57.504Z,54.97
2018-12-16T01:50:27.084Z,54.17
2018-12-16T01:52:57.481Z,54.53
2018-12-16T01:55:27.184Z,59.80
2018-12-16T01:57:56.863Z,55.37
2018-12-16T02:00:28.725Z,61.83
2018-12-16T02:02:58.523Z,55.67
2018-12-16T02:05:28.289Z,62.00
2018-12-16T02:07:58.092Z,54.90
2018-12-16T02:10:27.882Z,69.30
2018-12-16T02:12:57.538Z,59.57
2018-12-16T02:15:27.145Z,60.50
2018-12-16T02:17:56.792Z,59.70
2018-12-16T02:20:26.489Z,58.00
2018-12-16T02:22:57.028Z,59.37
2018-12-16T02:25:27.095Z,61.00
2018-12-16T02:27:56.724Z,57.23
2018-12-16T02:30:29.714Z,56.93
2018-12-16T02:32:59.347Z,61.27
2018-12-16T02:35:35.829Z,57.20
2018-12-16T02:38:07.478Z,61.70
2018-12-16T02:40:37.515Z,59.37
2018-12-16T02:43:07.224Z,62.93
2018-12-16T02:45:37.465Z,58.03
2018-12-16T02:48:12.692Z,61.63
2018-12-16T02:50:42.337Z,57.30
2018-12-16T02:53:13.001Z,57.10
2018-12-16T02:55:42.762Z,61.30
2018-12-16T02:58:12.459Z,58.10
2018-12-16T03:00:42.700Z,62.77
2018-12-16T03:03:12.364Z,54.87
2018-12-16T03:05:41.952Z,62.00
2018-12-16T03:08:11.590Z,55.90
2018-12-16T03:10:41.375Z,65.60
2018-12-16T03:13:11.056Z,56.33
2018-12-16T03:15:41.655Z,61.03
2018-12-16T03:18:11.283Z,65.70
2018-12-16T03:20:42.835Z,64.27
2018-12-16T03:23:12.723Z,60.93
2018-12-16T03:25:42.447Z,60.30
2018-12-16T03:28:12.296Z,58.43
2018-12-16T03:30:43.577Z,58.20
2018-12-16T03:33:13.451Z,58.93
2018-12-16T03:35:43.281Z,61.10
2018-12-16T03:38:16.025Z,59.73
2018-12-16T03:40:46.275Z,58.53
2018-12-16T03:43:16.660Z,56.50
2018-12-16T03:45:46.304Z,57.30
2018-12-16T03:48:15.982Z,58.93
2018-12-16T03:50:45.599Z,56.03
2018-12-16T03:53:19.809Z,56.47
2018-12-16T03:55:46.868Z,57.47
2018-12-16T03:58:16.846Z,55.70
2018-12-16T04:00:46.463Z,61.30
2018-12-16T04:03:16.150Z,58.53
2018-12-16T04:05:45.747Z,54.40
2018-12-16T04:08:15.359Z,56.57
2018-12-16T04:10:45.028Z,63.80
2018-12-16T04:13:14.662Z,55.30
2018-12-16T04:15:44.758Z,61.37
2018-12-16T04:18:14.376Z,57.57
2018-12-16T04:20:44.048Z,57.57
2018-12-16T04:23:13.703Z,54.13
2018-12-16T04:25:43.492Z,55.63
2018-12-16T04:28:13.420Z,58.57
2018-12-16T04:30:43.993Z,54.83
2018-12-16T04:33:13.620Z,56.97
2018-12-16T04:35:43.254Z,54.80
2018-12-16T04:38:12.931Z,61.00
2018-12-16T04:40:43.210Z,53.77
2018-12-16T04:43:12.890Z,57.27
2018-12-16T04:45:43.389Z,54.17
2018-12-16T04:48:19.694Z,59.33
2018-12-16T04:50:49.427Z,50.17
2018-12-16T04:53:19.017Z,58.50
2018-12-16T04:55:48.569Z,54.57
2018-12-16T04:58:18.717Z,56.13
2018-12-16T05:00:48.296Z,54.10
2018-12-16T05:03:18.083Z,50.77
2018-12-16T05:05:47.737Z,51.27
2018-12-16T05:08:17.470Z,53.53
2018-12-16T05:10:47.107Z,56.13
2018-12-16T05:13:17.179Z,54.03
2018-12-16T05:15:47.278Z,53.20
2018-12-16T05:18:17.326Z,52.90
2018-12-16T05:20:46.979Z,55.67
2018-12-16T05:23:16.637Z,56.07
2018-12-16T05:25:46.232Z,52.67
2018-12-16T05:28:15.821Z,55.93
2018-12-16T05:30:45.965Z,54.43
2018-12-16T05:33:15.585Z,54.50
2018-12-16T05:35:45.339Z,52.63
2018-12-16T05:38:14.989Z,57.63
2018-12-16T05:40:45.396Z,57.40
2018-12-16T05:43:14.973Z,53.50
2018-12-16T05:45:45.346Z,53.53
2018-12-16T05:48:15.088Z,60.27
2018-12-16T05:50:45.354Z,55.20
2018-12-16T05:53:14.925Z,54.53
2018-12-16T05:55:44.930Z,58.17
2018-12-16T05:58:14.573Z,48.33
2018-12-16T06:00:45.038Z,56.63
2018-12-16T06:03:14.642Z,54.50
2018-12-16T06:05:44.684Z,57.93
2018-12-16T06:08:14.258Z,59.77
2018-12-16T06:10:43.884Z,55.73
2018-12-16T06:13:13.471Z,53.60
2018-12-16T06:15:44.201Z,54.80
2018-12-16T06:18:13.962Z,60.70
2018-12-16T06:20:44.707Z,61.57
2018-12-16T06:23:14.878Z,60.90
2018-12-16T06:25:44.519Z,62.43
2018-12-16T06:28:14.102Z,55.60
2018-12-16T06:30:44.544Z,58.67
2018-12-16T06:33:14.176Z,63.93
2018-12-16T06:35:44.517Z,72.50
2018-12-16T06:38:14.124Z,59.17
2018-12-16T06:40:43.761Z,52.60
2018-12-16T06:43:13.429Z,53.00
2018-12-16T06:45:44.177Z,56.40
2018-12-16T06:48:13.903Z,56.83
2018-12-16T06:50:44.203Z,54.80
2018-12-16T06:53:13.815Z,58.03
2018-12-16T06:55:44.232Z,60.83
2018-12-16T06:58:13.950Z,52.60
2018-12-16T07:00:45.151Z,56.37
2018-12-16T07:03:14.942Z,51.43
2018-12-16T07:05:44.860Z,55.87
2018-12-16T07:08:14.844Z,64.00
2018-12-16T07:10:45.292Z,61.03
2018-12-16T07:13:15.471Z,61.43
2018-12-16T07:15:46.046Z,60.70
2018-12-16T07:18:15.999Z,59.03
2018-12-16T07:20:47.902Z,59.90
2018-12-16T07:23:18.102Z,56.23
2018-12-16T07:25:47.720Z,59.40
2018-12-16T07:28:18.325Z,56.43
2018-12-16T07:30:48.003Z,56.27
2018-12-16T07:33:18.086Z,53.27
2018-12-16T07:35:47.795Z,57.50
2018-12-16T07:38:17.470Z,57.67
2018-12-16T07:40:47.103Z,60.00
2018-12-16T07:43:16.907Z,61.87
2018-12-16T07:45:47.789Z,60.57
2018-12-16T07:48:18.218Z,60.83
2018-12-16T07:53:29.229Z,53.33
2018-12-16T07:55:59.017Z,53.90
2018-12-16T07:58:28.723Z,67.03
2018-12-16T08:00:58.350Z,60.00
2018-12-16T08:03:27.999Z,64.33
2018-12-16T08:05:57.771Z,60.17
2018-12-16T08:08:27.462Z,57.47
2018-12-16T08:10:57.159Z,53.53
2018-12-16T08:13:26.985Z,57.13
2018-12-16T08:15:56.627Z,56.90
2018-12-16T08:18:26.237Z,52.70
2018-12-16T08:20:55.941Z,57.83
2018-12-16T08:23:25.606Z,58.50
2018-12-16T08:25:55.274Z,60.23
2018-12-16T08:28:25.434Z,59.17
2018-12-16T08:30:55.078Z,55.70
2018-12-16T08:33:24.669Z,58.97
2018-12-16T08:35:54.348Z,58.13
2018-12-16T08:38:24.138Z,59.67
2018-12-16T08:40:53.850Z,60.80
2018-12-16T08:50:24.849Z,55.20
2018-12-16T08:52:54.591Z,56.47
2018-12-16T08:55:24.428Z,56.50
2018-12-16T08:57:54.101Z,61.60
2018-12-16T09:00:23.823Z,55.77
2018-12-16T09:02:53.424Z,56.40
2018-12-16T09:05:28.286Z,56.50
2018-12-16T09:07:57.954Z,64.03
2018-12-16T09:10:33.914Z,58.83
2018-12-16T09:12:59.376Z,59.87
2018-12-16T09:15:29.008Z,53.33
2018-12-16T09:17:58.983Z,56.77
2018-12-16T09:20:29.727Z,61.33
2018-12-16T09:22:59.445Z,57.10
2018-12-16T09:25:29.236Z,59.53
2018-12-16T09:27:58.954Z,52.33
2018-12-16T09:30:28.759Z,52.43
2018-12-16T09:32:58.502Z,52.73
2018-12-16T09:35:28.270Z,52.50
2018-12-16T09:37:58.089Z,54.10
2018-12-16T09:40:27.839Z,55.07
2018-12-16T09:42:57.685Z,51.67
2018-12-16T09:45:27.637Z,49.90
2018-12-16T09:47:57.720Z,57.43
2018-12-16T09:50:27.618Z,51.50
2018-12-16T09:52:58.191Z,55.10
2018-12-16T09:55:28.128Z,52.67
2018-12-16T09:57:57.763Z,52.07
2018-12-16T10:00:27.520Z,53.67
2018-12-16T10:02:57.221Z,53.03
2018-12-16T10:05:26.887Z,56.23
2018-12-16T10:07:56.564Z,56.60
2018-12-16T10:10:27.295Z,53.63
2018-12-16T10:12:56.983Z,53.53
2018-12-16T10:15:27.442Z,50.73
2018-12-16T10:17:58.823Z,56.70
2018-12-16T10:20:28.456Z,48.40
2018-12-16T10:22:58.818Z,56.93
2018-12-16T10:25:28.660Z,51.13
2018-12-16T10:27:58.565Z,46.57
2018-12-16T10:30:28.881Z,51.40
2018-12-16T10:32:59.293Z,48.53
2018-12-16T10:35:29.438Z,48.63
2018-12-16T10:37:59.029Z,47.67
2018-12-16T10:40:28.806Z,53.00
2018-12-16T10:42:58.396Z,49.57
2018-12-16T10:45:28.547Z,52.17
2018-12-16T10:47:58.368Z,49.63
2018-12-16T10:50:34.601Z,48.80
2018-12-16T10:53:04.396Z,49.70
2018-12-16T10:55:34.314Z,54.87
2018-12-16T10:58:04.093Z,50.87
2018-12-16T11:00:40.683Z,51.20
2018-12-16T11:03:12.410Z,49.30
2018-12-16T11:05:43.590Z,51.90
2018-12-16T11:08:14.392Z,50.97
2018-12-16T11:10:44.855Z,51.77
2018-12-16T11:13:15.396Z,52.00
2018-12-16T11:15:48.049Z,49.90
2018-12-16T11:18:22.387Z,53.07
2018-12-16T11:21:04.687Z,55.77
2018-12-16T11:23:46.057Z,51.93
2018-12-16T11:26:18.789Z,51.40
2018-12-16T11:28:49.261Z,45.10
2018-12-16T11:31:21.493Z,50.87
2018-12-16T11:33:52.144Z,50.80
2018-12-16T11:36:22.651Z,55.80
2018-12-16T11:38:54.624Z,52.17
2018-12-16T11:41:26.396Z,50.70
2018-12-16T11:43:58.996Z,47.77
2018-12-16T11:46:30.085Z,54.63
2018-12-16T11:49:02.127Z,45.40
2018-12-16T11:51:37.820Z,48.97
2018-12-16T11:54:11.106Z,53.53
2018-12-16T11:56:41.701Z,60.63
2018-12-16T11:59:12.076Z,51.20
2018-12-16T12:01:43.892Z,49.53
2018-12-16T12:04:14.466Z,51.53
2018-12-16T12:06:45.002Z,49.63
2018-12-16T12:09:15.429Z,54.77
2018-12-16T12:11:46.886Z,54.43
2018-12-16T12:14:20.498Z,47.20
2018-12-16T12:16:53.352Z,47.93
2018-12-16T12:19:23.897Z,47.60
2018-12-16T12:21:55.179Z,49.47
2018-12-16T12:24:26.785Z,49.03
2018-12-16T12:26:57.512Z,48.60
2018-12-16T12:29:27.354Z,53.43
2018-12-16T12:31:57.049Z,48.33
2018-12-16T12:34:27.570Z,49.57
2018-12-16T12:36:57.258Z,48.90
2018-12-16T12:39:26.929Z,48.93
2018-12-16T12:41:56.911Z,45.67
2018-12-16T12:44:26.762Z,46.70
2018-12-16T12:46:56.487Z,45.80
2018-12-16T12:49:26.650Z,44.80
2018-12-16T12:51:56.931Z,46.97
2018-12-16T12:54:27.119Z,42.50
2018-12-16T12:56:57.922Z,35.83
2018-12-16T12:59:27.708Z,37.93
2018-12-16T13:01:57.425Z,40.23
2018-12-16T13:04:27.487Z,36.73
2018-12-16T13:06:57.078Z,38.17
2018-12-16T13:09:26.800Z,35.60
2018-12-16T13:12:59.547Z,34.73
2018-12-16T13:15:29.238Z,37.33
2018-12-16T13:17:58.810Z,49.23
2018-12-16T13:20:28.388Z,33.47
2018-12-16T13:22:58.356Z,74.20
2018-12-16T13:25:44.945Z,32.97
2018-12-16T13:28:14.659Z,43.67
2018-12-16T13:30:44.770Z,40.20
2018-12-16T13:33:15.646Z,32.13
2018-12-16T13:35:45.288Z,33.07
2018-12-16T13:38:17.465Z,44.33
2018-12-16T13:40:47.744Z,41.70
2018-12-16T13:43:22.642Z,38.87
2018-12-16T13:45:52.270Z,28.63
2018-12-16T13:48:21.917Z,35.27
2018-12-16T13:50:52.346Z,34.13
2018-12-16T13:53:22.042Z,33.80
2018-12-16T13:55:51.863Z,34.33
2018-12-16T13:58:22.461Z,34.33
2018-12-16T14:00:52.146Z,31.67
2018-12-16T14:03:22.503Z,33.17
2018-12-16T14:05:52.183Z,34.93
2018-12-16T14:08:22.300Z,33.30
2018-12-16T14:10:52.167Z,35.77
2018-12-16T14:13:22.157Z,33.30
2018-12-16T14:15:52.601Z,32.30
2018-12-16T14:18:22.573Z,30.57
2018-12-16T14:20:52.314Z,31.07
2018-12-16T14:23:22.467Z,32.63
2018-12-16T14:25:52.565Z,27.77
2018-12-16T14:28:22.971Z,31.47
2018-12-16T14:30:56.323Z,32.23
2018-12-16T14:33:27.147Z,35.03
2018-12-16T14:35:57.478Z,30.50
2018-12-16T14:38:29.454Z,53.07
2018-12-16T14:40:59.997Z,40.07
2018-12-16T14:43:31.286Z,34.13
2018-12-16T14:46:01.340Z,32.53
2018-12-16T14:48:31.736Z,33.73
2018-12-16T14:51:01.860Z,33.27
2018-12-16T14:53:32.473Z,34.30
2018-12-16T14:56:02.708Z,32.07
2018-12-16T14:58:32.675Z,31.43
2018-12-16T15:01:03.359Z,31.50
2018-12-16T15:03:34.640Z,29.40
2018-12-16T15:06:04.645Z,30.57
2018-12-16T15:08:34.774Z,30.57
2018-12-16T15:11:06.130Z,29.20
2018-12-16T15:13:36.646Z,29.73
2018-12-16T15:16:06.594Z,26.90
2018-12-16T15:18:38.331Z,27.03
2018-12-16T15:21:08.865Z,30.30
2018-12-16T15:23:39.116Z,35.30
2018-12-16T15:26:08.999Z,32.93
2018-12-16T15:28:39.227Z,27.20
2018-12-16T15:31:10.065Z,28.20
2018-12-16T15:33:41.138Z,30.93
2018-12-16T15:36:11.026Z,33.13
2018-12-16T15:38:41.806Z,29.33
2018-12-16T15:41:11.874Z,28.47
2018-12-16T15:43:42.581Z,31.87
2018-12-16T15:46:12.801Z,32.63
2018-12-16T15:48:44.041Z,28.83
2018-12-16T15:51:14.016Z,26.70
2018-12-16T15:53:44.594Z,25.60
2018-12-16T15:56:14.673Z,28.63
2018-12-16T15:58:45.268Z,33.63
2018-12-16T16:01:15.529Z,29.43
2018-12-16T16:03:45.609Z,28.27
2018-12-16T16:06:15.454Z,30.63
2018-12-16T16:08:45.366Z,30.47
2018-12-16T16:11:14.947Z,28.20
2018-12-16T16:13:45.145Z,28.27
2018-12-16T16:16:14.714Z,25.77
2018-12-16T16:18:45.455Z,27.27
2018-12-16T16:21:15.059Z,30.77
2018-12-16T16:23:45.539Z,25.00
2018-12-16T16:26:16.370Z,28.43
2018-12-16T16:28:46.652Z,31.33
2018-12-16T16:31:16.694Z,27.40
2018-12-16T16:33:46.931Z,27.97
2018-12-16T16:36:16.551Z,23.87
2018-12-16T16:38:46.867Z,28.60
2018-12-16T16:41:16.581Z,30.33
2018-12-16T16:43:46.587Z,28.07
2018-12-16T16:46:17.208Z,29.87
2018-12-16T16:48:47.607Z,29.43
2018-12-16T16:51:17.192Z,26.10
2018-12-16T16:53:46.850Z,32.40
2018-12-16T16:56:22.838Z,27.47
2018-12-16T16:58:48.276Z,26.77
2018-12-16T17:01:17.896Z,28.27
2018-12-16T17:03:48.734Z,27.97
2018-12-16T17:06:18.557Z,27.37
2018-12-16T17:08:48.759Z,29.27
2018-12-16T17:11:19.554Z,27.70
2018-12-16T17:13:49.375Z,30.97
2018-12-16T17:16:19.338Z,27.30
2018-12-16T17:18:49.957Z,29.73
2018-12-16T17:21:19.762Z,29.30
2018-12-16T17:23:49.684Z,30.70
2018-12-16T17:26:19.509Z,27.13
2018-12-16T17:28:49.979Z,29.83
2018-12-16T17:31:20.543Z,29.00
2018-12-16T17:33:50.799Z,28.40
2018-12-16T17:36:21.119Z,29.47
2018-12-16T17:38:52.478Z,30.90
2018-12-16T17:41:22.493Z,31.67
2018-12-16T17:43:53.383Z,29.20
2018-12-16T17:47:26.251Z,31.40
2018-12-16T17:49:56.442Z,30.17
2018-12-16T17:52:26.995Z,33.90
2018-12-16T17:54:56.943Z,31.07
2018-12-16T17:57:27.097Z,33.83
2018-12-16T17:59:57.002Z,28.97
2018-12-16T18:02:27.066Z,31.23
2018-12-16T18:04:57.294Z,27.87
2018-12-16T18:07:28.391Z,32.93
2018-12-16T18:09:58.855Z,33.47
2018-12-16T18:12:28.883Z,34.00
2018-12-16T18:14:58.974Z,29.17
2018-12-16T18:17:29.193Z,25.60
2018-12-16T18:20:07.729Z,26.23
2018-12-16T18:22:38.941Z,27.17
2018-12-16T18:25:09.472Z,28.07
2018-12-16T18:27:41.032Z,27.93
2018-12-16T18:30:11.741Z,25.33
2018-12-16T18:32:41.899Z,29.80
2018-12-16T18:35:12.415Z,26.97
2018-12-16T18:37:42.783Z,24.80
2018-12-16T18:40:13.603Z,26.90
2018-12-16T18:42:43.996Z,25.80
2018-12-16T18:45:13.686Z,29.87
2018-12-16T18:47:46.317Z,27.83
2018-12-16T18:50:16.663Z,31.63
2018-12-16T18:52:46.644Z,25.87
2018-12-16T18:55:16.504Z,29.07
2018-12-16T18:57:46.545Z,27.50
2018-12-16T19:00:16.597Z,26.60
2018-12-16T19:02:46.535Z,27.33
2018-12-16T19:05:16.538Z,27.80
2018-12-16T19:07:46.437Z,28.90
2018-12-16T19:10:16.083Z,30.57
2018-12-16T19:12:45.901Z,28.50
2018-12-16T19:15:16.340Z,33.43
2018-12-16T19:17:46.458Z,28.03
2018-12-16T19:20:16.885Z,29.43
2018-12-16T19:22:46.791Z,28.87
2018-12-16T19:25:16.788Z,33.97
2018-12-16T19:27:47.013Z,30.57
2018-12-16T19:30:17.458Z,33.17
2018-12-16T19:32:48.050Z,30.33
2018-12-16T19:35:18.461Z,30.37
2018-12-16T19:37:48.505Z,27.20
2018-12-16T19:40:19.429Z,28.67
2018-12-16T19:42:49.115Z,27.57
2018-12-16T19:45:19.074Z,29.27
2018-12-16T19:47:49.656Z,28.03
2018-12-16T19:50:19.699Z,29.43
2018-12-16T19:52:49.506Z,29.30
2018-12-16T19:55:19.601Z,27.63
2018-12-16T19:57:49.322Z,28.13
2018-12-16T20:00:19.212Z,31.53
2018-12-16T20:02:48.891Z,29.23
2018-12-16T20:05:21.184Z,26.23
2018-12-16T20:07:51.337Z,27.87
2018-12-16T20:10:21.067Z,30.63
2018-12-16T20:12:50.919Z,28.77
2018-12-16T20:15:20.623Z,31.53
2018-12-16T20:17:50.450Z,28.17
2018-12-16T20:20:20.089Z,30.57
2018-12-16T20:22:51.541Z,31.33
2018-12-16T20:25:21.345Z,30.00
2018-12-16T20:27:50.998Z,28.80
2018-12-16T20:30:20.765Z,30.50
2018-12-16T20:32:50.425Z,30.83
2018-12-16T20:35:20.480Z,27.80
2018-12-16T20:37:50.567Z,31.73
2018-12-16T20:40:20.167Z,28.63
2018-12-16T20:42:50.530Z,27.93
2018-12-16T20:45:20.167Z,29.50
2018-12-16T20:47:49.770Z,31.60
2018-12-16T20:50:19.379Z,30.70
2018-12-16T20:52:49.060Z,31.07
2018-12-16T20:55:19.509Z,34.60
2018-12-16T20:57:50.033Z,33.07
2018-12-16T21:00:20.815Z,29.70
2018-12-16T21:02:50.500Z,32.43
2018-12-16T21:05:20.118Z,29.90
2018-12-16T21:07:49.748Z,32.07
2018-12-16T21:10:19.637Z,36.47
2018-12-16T21:12:54.556Z,33.53
2018-12-16T21:15:29.324Z,30.50
2018-12-16T21:18:04.596Z,30.60
2018-12-16T21:20:34.509Z,32.37
2018-12-16T21:23:04.349Z,31.37
2018-12-16T21:25:34.176Z,32.33
2018-12-16T21:28:03.873Z,32.90
2018-12-16T21:30:33.615Z,37.23
2018-12-16T21:33:03.371Z,32.97
2018-12-16T21:35:34.033Z,37.70
2018-12-16T21:38:04.349Z,33.17
2018-12-16T21:40:34.055Z,31.97
2018-12-16T21:43:04.317Z,32.00
2018-12-16T21:45:34.231Z,32.37
2018-12-16T21:48:04.241Z,31.47
2018-12-16T21:50:34.328Z,36.47
2018-12-16T21:53:04.502Z,33.57
2018-12-16T21:55:34.404Z,32.30
2018-12-16T21:58:04.208Z,30.37
2018-12-16T22:00:33.845Z,34.97
2018-12-16T22:03:03.556Z,29.80
2018-12-16T22:05:34.433Z,34.53
2018-12-16T22:08:04.221Z,34.23
2018-12-16T22:10:34.316Z,37.43
2018-12-16T22:13:04.071Z,29.73
2018-12-16T22:15:33.997Z,36.17
2018-12-16T22:18:04.362Z,35.37
2018-12-16T22:20:34.011Z,32.70
2018-12-16T22:23:03.939Z,31.57
2018-12-16T22:25:33.568Z,31.10
2018-12-16T22:28:03.745Z,35.67
2018-12-16T22:30:33.678Z,33.87
2018-12-16T22:33:04.165Z,34.87
2018-12-16T22:35:33.873Z,35.53
2018-12-16T22:38:04.049Z,35.13
2018-12-16T22:40:33.757Z,32.93
2018-12-16T22:43:04.377Z,34.40
2018-12-16T22:45:34.056Z,33.63
2018-12-16T22:48:04.576Z,30.73
2018-12-16T22:50:45.023Z,32.57
2018-12-16T22:53:28.637Z,33.70
2018-12-16T22:56:04.541Z,37.00
2018-12-16T22:58:34.220Z,33.57
2018-12-16T23:01:10.449Z,34.73
2018-12-16T23:03:41.033Z,33.30
2018-12-16T23:06:10.832Z,39.90
2018-12-16T23:08:40.788Z,35.00
2018-12-16T23:11:11.564Z,37.57
2018-12-16T23:13:41.498Z,37.07
2018-12-16T23:16:11.217Z,37.17
2018-12-16T23:18:43.054Z,39.13
2018-12-16T23:21:12.758Z,36.43
2018-12-16T23:23:42.389Z,35.80
2018-12-16T23:26:12.008Z,36.63
2018-12-16T23:28:41.661Z,34.37
2018-12-16T23:31:12.150Z,39.07
2018-12-16T23:33:42.981Z,37.83
2018-12-16T23:36:12.623Z,41.03
2018-12-16T23:38:42.292Z,39.53
2018-12-16T23:41:12.328Z,38.43
2018-12-16T23:43:44.857Z,39.40
2018-12-16T23:46:14.487Z,36.50
2018-12-16T23:48:44.862Z,40.63
2018-12-16T23:51:14.554Z,37.43
2018-12-16T23:53:44.209Z,40.37
2018-12-16T23:56:13.861Z,39.00
2018-12-16T23:58:43.471Z,37.13
